Neva Lux — UGZF — position and weather

sailwx.info

Track history (hours):
 
Tides and Currents Weather Stations Pressure Air Temp Water Temp Dewpoint Dewpoint Depression Visibility Wind Speed Wind Dir Waves Ship Positions

Neva Lux

Last reported at 2015-Mar-03 02:18 UTC. Time now 2015-Mar-06 11:11 UTC.
Position N 59°55' E 030°13'.

Length 65 m; draft 3.5 m.

Type: Tanker. MMSI: 273426540.

Date/timePositionNaut miles runAvg speedWind from/ knotsBaromVisibWave heightAir tempDewpointWater temp
2015-Mar-03 02:18N 59°55' E 030°13'0 0.0
2015-Mar-02 21:13N 59°55' E 030°13'0 0.0
2015-Mar-02 13:33N 59°54' E 030°14'1 0.6
2015-Mar-02 12:33N 59°55' E 030°14'0 0.0
2015-Mar-02 11:32N 59°55' E 030°14'0 0.0
2015-Mar-02 10:33N 59°55' E 030°14'0 0.0
2015-Mar-02 09:33N 59°55' E 030°14'0 0.0
2015-Mar-02 08:30N 59°55' E 030°14'0 0.0
2015-Mar-02 07:13N 59°55' E 030°14'0 0.0
2015-Mar-02 06:33N 59°55' E 030°14'0 0.0
2015-Mar-02 05:32N 59°55' E 030°14'0 0.0
2015-Mar-02 04:33N 59°55' E 030°14'0 0.0
2015-Mar-02 03:33N 59°55' E 030°14'0 0.0
2015-Mar-02 02:33N 59°55' E 030°14'0 0.0
2015-Mar-02 01:33N 59°55' E 030°14'0 0.0
2015-Mar-02 00:33N 59°55' E 030°14'0 0.0
2015-Mar-01 23:32N 59°55' E 030°14'0 0.0
2015-Mar-01 22:32N 59°55' E 030°14'0 0.0
2015-Mar-01 21:33N 59°55' E 030°14'0 0.0
2015-Mar-01 20:33N 59°55' E 030°14'0 0.0
2015-Mar-01 19:33N 59°55' E 030°14'0 0.2
2015-Mar-01 18:33N 59°55' E 030°14'0 0.1
2015-Mar-01 15:33N 59°54' E 030°14'1 0.2
2015-Mar-01 09:28N 59°53' E 030°12'2 0.1
2015-Feb-28 11:33N 59°55' E 030°14'0 0.3
2015-Feb-28 10:33N 59°55' E 030°14'0 0.0
2015-Feb-28 09:33N 59°55' E 030°14'0 0.0
2015-Feb-28 08:33N 59°55' E 030°14'0 0.0
2015-Feb-28 07:32N 59°55' E 030°14'2 2.1
2015-Feb-28 06:26N 59°53' E 030°11'1 0.2
2015-Feb-28 01:33N 59°53' E 030°12'1 1.2
2015-Feb-28 00:32N 59°55' E 030°13'0 0.0
2015-Feb-27 23:30N 59°55' E 030°13'0 0.0
2015-Feb-27 22:33N 59°55' E 030°13'0 0.0
2015-Feb-27 21:33N 59°55' E 030°13'0 0.0
2015-Feb-27 20:32N 59°55' E 030°13'0 0.0
2015-Feb-27 19:29N 59°55' E 030°13'0 0.0
2015-Feb-27 17:27N 59°55' E 030°13'0 0.0
2015-Feb-27 16:33N 59°55' E 030°13'0 0.0
2015-Feb-27 15:32N 59°55' E 030°13'0 0.0
2015-Feb-27 14:32N 59°55' E 030°13'0 0.0
2015-Feb-27 13:33N 59°55' E 030°13'0 0.0
2015-Feb-27 12:30N 59°55' E 030°13'0 0.0
2015-Feb-27 11:29N 59°55' E 030°13'0 0.0
2015-Feb-27 10:16N 59°55' E 030°13'0 0.0
2015-Feb-27 09:31N 59°55' E 030°13'0 0.0
2015-Feb-27 08:09N 59°55' E 030°13'0 0.0
2015-Feb-27 00:09N 59°55' E 030°13'0 0.0
2015-Feb-26 15:21N 59°55' E 030°13'0 0.0
2015-Feb-26 11:04N 59°55' E 030°13'0 0.0
2015-Feb-26 10:15N 59°55' E 030°13'0 0.0
2015-Feb-26 09:14N 59°55' E 030°13'0 0.0
2015-Feb-26 08:23N 59°55' E 030°13'0 0.0
2015-Feb-26 07:32N 59°55' E 030°13'0 0.0
2015-Feb-26 03:07N 59°55' E 030°13'0 0.0
2015-Feb-26 02:11N 59°55' E 030°13'0 0.0
2015-Feb-26 00:29N 59°55' E 030°13'0 0.0
2015-Feb-25 23:32N 59°55' E 030°13'0 0.0
2015-Feb-25 22:17N 59°55' E 030°13'0 0.0
2015-Feb-25 21:32N 59°55' E 030°13'0 0.0
2015-Feb-25 20:29N 59°55' E 030°13'0 0.0
2015-Feb-25 19:33N 59°55' E 030°13'0 0.0
2015-Feb-25 18:32N 59°55' E 030°13'0 0.0
2015-Feb-25 17:33N 59°55' E 030°13'0 0.0
2015-Feb-25 16:33N 59°55' E 030°13'0 0.0
2015-Feb-25 15:33N 59°55' E 030°13'0 0.0
2015-Feb-25 14:33N 59°55' E 030°13'0 0.1
2015-Feb-25 13:33N 59°55' E 030°13'0 0.4
2015-Feb-25 12:33N 59°55' E 030°14'0 0.0
2015-Feb-25 11:33N 59°55' E 030°14'0 0.0
2015-Feb-25 10:33N 59°55' E 030°14'0 0.0
2015-Feb-25 09:33N 59°55' E 030°14'0 0.4
2015-Feb-25 08:33N 59°55' E 030°13'0 0.0
2015-Feb-25 07:31N 59°55' E 030°13'0 0.0
2015-Feb-25 06:33N 59°55' E 030°13'0 0.0
2015-Feb-25 05:32N 59°55' E 030°13'0 0.0
2015-Feb-25 04:31N 59°55' E 030°13'0 0.0
2015-Feb-25 03:32N 59°55' E 030°13'0 0.0
2015-Feb-25 02:32N 59°55' E 030°13'0 0.0
2015-Feb-25 01:32N 59°55' E 030°13'0 0.0
2015-Feb-25 00:29N 59°55' E 030°13'0 0.0
2015-Feb-24 23:33N 59°55' E 030°13'0 0.0
2015-Feb-24 22:20N 59°55' E 030°13'0 0.0
2015-Feb-24 18:33N 59°55' E 030°13'1 0.2
2015-Feb-24 12:31N 59°53' E 030°12'1 1.5
2015-Feb-24 11:33N 59°55' E 030°14'0 0.0
2015-Feb-24 10:33N 59°55' E 030°14'0 0.0
2015-Feb-24 09:32N 59°55' E 030°14'0 0.0
2015-Feb-24 08:33N 59°55' E 030°14'0 0.0
2015-Feb-24 07:33N 59°55' E 030°14'0 0.0
2015-Feb-24 06:33N 59°55' E 030°14'0 0.0
2015-Feb-24 05:28N 59°55' E 030°14'0 0.0
2015-Feb-24 04:33N 59°55' E 030°14'0 0.0
2015-Feb-24 03:21N 59°55' E 030°14'0 0.0
2015-Feb-24 02:33N 59°55' E 030°14'0 0.0
2015-Feb-24 01:32N 59°55' E 030°14'0 0.0
2015-Feb-24 00:33N 59°55' E 030°14'0 0.0
2015-Feb-23 23:33N 59°55' E 030°14'0 0.0
2015-Feb-23 22:33N 59°55' E 030°14'0 0.0
2015-Feb-23 21:32N 59°55' E 030°14'0 0.0
2015-Feb-23 20:33N 59°55' E 030°14'0 0.0
2015-Feb-23 19:33N 59°55' E 030°14'0 0.0
2015-Feb-23 18:33N 59°55' E 030°14'0 0.0
2015-Feb-23 17:33N 59°55' E 030°14'0 0.0
2015-Feb-23 16:33N 59°55' E 030°14'0 0.0
2015-Feb-23 15:33N 59°55' E 030°14'0 0.0
2015-Feb-23 14:34N 59°55' E 030°14'0 0.0
2015-Feb-23 13:33N 59°55' E 030°14'0 0.2
2015-Feb-23 12:33N 59°55' E 030°14'0 0.0
2015-Feb-23 11:33N 59°55' E 030°14'0 0.0
2015-Feb-23 10:33N 59°55' E 030°14'0 0.0
2015-Feb-23 09:32N 59°55' E 030°14'0 0.2
2015-Feb-23 08:33N 59°55' E 030°14'0 0.0
2015-Feb-23 07:33N 59°55' E 030°14'0 0.0
2015-Feb-23 06:33N 59°55' E 030°14'0 0.0
2015-Feb-23 05:33N 59°55' E 030°14'0 0.0
2015-Feb-23 04:33N 59°55' E 030°14'0 0.0
2015-Feb-23 03:33N 59°55' E 030°14'0 0.0
2015-Feb-23 02:33N 59°55' E 030°14'0 0.0
2015-Feb-23 01:33N 59°55' E 030°14'0 0.0
2015-Feb-23 00:33N 59°55' E 030°14'0 0.0
2015-Feb-22 23:33N 59°55' E 030°14'0 0.0
2015-Feb-22 22:33N 59°55' E 030°14'0 0.0
2015-Feb-22 21:33N 59°55' E 030°14'1 1.0
2015-Feb-22 20:30N 59°54' E 030°13'1 0.1
2015-Feb-22 12:09N 59°53' E 030°12'1 2.2
2015-Feb-22 11:32N 59°55' E 030°13'0 0.0
2015-Feb-22 10:31N 59°55' E 030°13'0 0.0
2015-Feb-22 09:33N 59°55' E 030°13'0 0.0
2015-Feb-22 08:17N 59°55' E 030°13'0 0.0
2015-Feb-22 06:16N 59°55' E 030°13'0 0.0
2015-Feb-22 04:12N 59°55' E 030°13'0 0.0
2015-Feb-22 03:20N 59°55' E 030°13'0 0.0
2015-Feb-22 02:31N 59°55' E 030°13'0 0.0
2015-Feb-22 01:28N 59°55' E 030°13'0 0.0
2015-Feb-22 00:30N 59°55' E 030°13'0 0.0
2015-Feb-21 23:33N 59°55' E 030°13'0 0.0
2015-Feb-21 22:28N 59°55' E 030°13'0 0.0
2015-Feb-21 21:33N 59°55' E 030°13'0 0.4
2015-Feb-21 20:33N 59°55' E 030°14'0 0.0
2015-Feb-21 19:33N 59°55' E 030°14'0 0.0
2015-Feb-21 18:33N 59°55' E 030°14'0 0.0
2015-Feb-21 17:33N 59°55' E 030°14'0 0.0
2015-Feb-21 16:30N 59°55' E 030°14'0 0.0
2015-Feb-21 15:33N 59°55' E 030°14'0 0.0
2015-Feb-21 14:33N 59°55' E 030°14'0 0.0
2015-Feb-21 13:33N 59°55' E 030°14'0 0.0
2015-Feb-21 12:33N 59°55' E 030°14'0 0.3
2015-Feb-21 11:33N 59°55' E 030°13'0 0.0
2015-Feb-21 04:19N 59°55' E 030°13'1 1.8
2015-Feb-21 03:31N 59°53' E 030°12'  
Track history (hours):
 
Tides and Currents Weather Stations Pressure Air Temp Water Temp Dewpoint Dewpoint Depression Visibility Wind Speed Wind Dir Waves Ship Positions

Neva Lux

Last reported at 2015-Mar-03 02:18 UTC. Time now 2015-Mar-06 11:11 UTC.
Position N 59°55' E 030°13'.

Length 65 m; draft 3.5 m.

Type: Tanker. MMSI: 273426540.

Date/timePositionNaut miles runAvg speedWind from/ knotsBaromVisibWave heightAir tempDewpointWater temp
2015-Mar-03 02:18N 59°55' E 030°13'0 0.0
2015-Mar-02 21:13N 59°55' E 030°13'0 0.0
2015-Mar-02 13:33N 59°54' E 030°14'1 0.6
2015-Mar-02 12:33N 59°55' E 030°14'0 0.0
2015-Mar-02 11:32N 59°55' E 030°14'0 0.0
2015-Mar-02 10:33N 59°55' E 030°14'0 0.0
2015-Mar-02 09:33N 59°55' E 030°14'0 0.0
2015-Mar-02 08:30N 59°55' E 030°14'0 0.0
2015-Mar-02 07:13N 59°55' E 030°14'0 0.0
2015-Mar-02 06:33N 59°55' E 030°14'0 0.0
2015-Mar-02 05:32N 59°55' E 030°14'0 0.0
2015-Mar-02 04:33N 59°55' E 030°14'0 0.0
2015-Mar-02 03:33N 59°55' E 030°14'0 0.0
2015-Mar-02 02:33N 59°55' E 030°14'0 0.0
2015-Mar-02 01:33N 59°55' E 030°14'0 0.0
2015-Mar-02 00:33N 59°55' E 030°14'0 0.0
2015-Mar-01 23:32N 59°55' E 030°14'0 0.0
2015-Mar-01 22:32N 59°55' E 030°14'0 0.0
2015-Mar-01 21:33N 59°55' E 030°14'0 0.0
2015-Mar-01 20:33N 59°55' E 030°14'0 0.0
2015-Mar-01 19:33N 59°55' E 030°14'0 0.2
2015-Mar-01 18:33N 59°55' E 030°14'0 0.1
2015-Mar-01 15:33N 59°54' E 030°14'1 0.2
2015-Mar-01 09:28N 59°53' E 030°12'2 0.1
2015-Feb-28 11:33N 59°55' E 030°14'0 0.3
2015-Feb-28 10:33N 59°55' E 030°14'0 0.0
2015-Feb-28 09:33N 59°55' E 030°14'0 0.0
2015-Feb-28 08:33N 59°55' E 030°14'0 0.0
2015-Feb-28 07:32N 59°55' E 030°14'2 2.1
2015-Feb-28 06:26N 59°53' E 030°11'1 0.2
2015-Feb-28 01:33N 59°53' E 030°12'1 1.2
2015-Feb-28 00:32N 59°55' E 030°13'0 0.0
2015-Feb-27 23:30N 59°55' E 030°13'0 0.0
2015-Feb-27 22:33N 59°55' E 030°13'0 0.0
2015-Feb-27 21:33N 59°55' E 030°13'0 0.0
2015-Feb-27 20:32N 59°55' E 030°13'0 0.0
2015-Feb-27 19:29N 59°55' E 030°13'0 0.0
2015-Feb-27 17:27N 59°55' E 030°13'0 0.0
2015-Feb-27 16:33N 59°55' E 030°13'0 0.0
2015-Feb-27 15:32N 59°55' E 030°13'0 0.0
2015-Feb-27 14:32N 59°55' E 030°13'0 0.0
2015-Feb-27 13:33N 59°55' E 030°13'0 0.0
2015-Feb-27 12:30N 59°55' E 030°13'0 0.0
2015-Feb-27 11:29N 59°55' E 030°13'0 0.0
2015-Feb-27 10:16N 59°55' E 030°13'0 0.0
2015-Feb-27 09:31N 59°55' E 030°13'0 0.0
2015-Feb-27 08:09N 59°55' E 030°13'0 0.0
2015-Feb-27 00:09N 59°55' E 030°13'0 0.0
2015-Feb-26 15:21N 59°55' E 030°13'0 0.0
2015-Feb-26 11:04N 59°55' E 030°13'0 0.0
2015-Feb-26 10:15N 59°55' E 030°13'0 0.0
2015-Feb-26 09:14N 59°55' E 030°13'0 0.0
2015-Feb-26 08:23N 59°55' E 030°13'0 0.0
2015-Feb-26 07:32N 59°55' E 030°13'0 0.0
2015-Feb-26 03:07N 59°55' E 030°13'0 0.0
2015-Feb-26 02:11N 59°55' E 030°13'0 0.0
2015-Feb-26 00:29N 59°55' E 030°13'0 0.0
2015-Feb-25 23:32N 59°55' E 030°13'0 0.0
2015-Feb-25 22:17N 59°55' E 030°13'0 0.0
2015-Feb-25 21:32N 59°55' E 030°13'0 0.0
2015-Feb-25 20:29N 59°55' E 030°13'0 0.0
2015-Feb-25 19:33N 59°55' E 030°13'0 0.0
2015-Feb-25 18:32N 59°55' E 030°13'0 0.0
2015-Feb-25 17:33N 59°55' E 030°13'0 0.0
2015-Feb-25 16:33N 59°55' E 030°13'0 0.0
2015-Feb-25 15:33N 59°55' E 030°13'0 0.0
2015-Feb-25 14:33N 59°55' E 030°13'0 0.1
2015-Feb-25 13:33N 59°55' E 030°13'0 0.4
2015-Feb-25 12:33N 59°55' E 030°14'0 0.0
2015-Feb-25 11:33N 59°55' E 030°14'0 0.0
2015-Feb-25 10:33N 59°55' E 030°14'0 0.0
2015-Feb-25 09:33N 59°55' E 030°14'0 0.4
2015-Feb-25 08:33N 59°55' E 030°13'0 0.0
2015-Feb-25 07:31N 59°55' E 030°13'0 0.0
2015-Feb-25 06:33N 59°55' E 030°13'0 0.0
2015-Feb-25 05:32N 59°55' E 030°13'0 0.0
2015-Feb-25 04:31N 59°55' E 030°13'0 0.0
2015-Feb-25 03:32N 59°55' E 030°13'0 0.0
2015-Feb-25 02:32N 59°55' E 030°13'0 0.0
2015-Feb-25 01:32N 59°55' E 030°13'0 0.0
2015-Feb-25 00:29N 59°55' E 030°13'0 0.0
2015-Feb-24 23:33N 59°55' E 030°13'0 0.0
2015-Feb-24 22:20N 59°55' E 030°13'0 0.0
2015-Feb-24 18:33N 59°55' E 030°13'1 0.2
2015-Feb-24 12:31N 59°53' E 030°12'1 1.5
2015-Feb-24 11:33N 59°55' E 030°14'0 0.0
2015-Feb-24 10:33N 59°55' E 030°14'0 0.0
2015-Feb-24 09:32N 59°55' E 030°14'0 0.0
2015-Feb-24 08:33N 59°55' E 030°14'0 0.0
2015-Feb-24 07:33N 59°55' E 030°14'0 0.0
2015-Feb-24 06:33N 59°55' E 030°14'0 0.0
2015-Feb-24 05:28N 59°55' E 030°14'0 0.0
2015-Feb-24 04:33N 59°55' E 030°14'0 0.0
2015-Feb-24 03:21N 59°55' E 030°14'0 0.0
2015-Feb-24 02:33N 59°55' E 030°14'0 0.0
2015-Feb-24 01:32N 59°55' E 030°14'0 0.0
2015-Feb-24 00:33N 59°55' E 030°14'0 0.0
2015-Feb-23 23:33N 59°55' E 030°14'0 0.0
2015-Feb-23 22:33N 59°55' E 030°14'0 0.0
2015-Feb-23 21:32N 59°55' E 030°14'0 0.0
2015-Feb-23 20:33N 59°55' E 030°14'0 0.0
2015-Feb-23 19:33N 59°55' E 030°14'0 0.0
2015-Feb-23 18:33N 59°55' E 030°14'0 0.0
2015-Feb-23 17:33N 59°55' E 030°14'0 0.0
2015-Feb-23 16:33N 59°55' E 030°14'0 0.0
2015-Feb-23 15:33N 59°55' E 030°14'0 0.0
2015-Feb-23 14:34N 59°55' E 030°14'0 0.0
2015-Feb-23 13:33N 59°55' E 030°14'0 0.2
2015-Feb-23 12:33N 59°55' E 030°14'0 0.0
2015-Feb-23 11:33N 59°55' E 030°14'0 0.0
2015-Feb-23 10:33N 59°55' E 030°14'0 0.0
2015-Feb-23 09:32N 59°55' E 030°14'0 0.2
2015-Feb-23 08:33N 59°55' E 030°14'0 0.0
2015-Feb-23 07:33N 59°55' E 030°14'0 0.0
2015-Feb-23 06:33N 59°55' E 030°14'0 0.0
2015-Feb-23 05:33N 59°55' E 030°14'0 0.0
2015-Feb-23 04:33N 59°55' E 030°14'0 0.0
2015-Feb-23 03:33N 59°55' E 030°14'0 0.0
2015-Feb-23 02:33N 59°55' E 030°14'0 0.0
2015-Feb-23 01:33N 59°55' E 030°14'0 0.0
2015-Feb-23 00:33N 59°55' E 030°14'0 0.0
2015-Feb-22 23:33N 59°55' E 030°14'0 0.0
2015-Feb-22 22:33N 59°55' E 030°14'0 0.0
2015-Feb-22 21:33N 59°55' E 030°14'1 1.0
2015-Feb-22 20:30N 59°54' E 030°13'1 0.1
2015-Feb-22 12:09N 59°53' E 030°12'1 2.2
2015-Feb-22 11:32N 59°55' E 030°13'0 0.0
2015-Feb-22 10:31N 59°55' E 030°13'0 0.0
2015-Feb-22 09:33N 59°55' E 030°13'0 0.0
2015-Feb-22 08:17N 59°55' E 030°13'0 0.0
2015-Feb-22 06:16N 59°55' E 030°13'0 0.0
2015-Feb-22 04:12N 59°55' E 030°13'0 0.0
2015-Feb-22 03:20N 59°55' E 030°13'0 0.0
2015-Feb-22 02:31N 59°55' E 030°13'0 0.0
2015-Feb-22 01:28N 59°55' E 030°13'0 0.0
2015-Feb-22 00:30N 59°55' E 030°13'0 0.0
2015-Feb-21 23:33N 59°55' E 030°13'0 0.0
2015-Feb-21 22:28N 59°55' E 030°13'0 0.0
2015-Feb-21 21:33N 59°55' E 030°13'0 0.4
2015-Feb-21 20:33N 59°55' E 030°14'0 0.0
2015-Feb-21 19:33N 59°55' E 030°14'0 0.0
2015-Feb-21 18:33N 59°55' E 030°14'0 0.0
2015-Feb-21 17:33N 59°55' E 030°14'0 0.0
2015-Feb-21 16:30N 59°55' E 030°14'0 0.0
2015-Feb-21 15:33N 59°55' E 030°14'0 0.0
2015-Feb-21 14:33N 59°55' E 030°14'0 0.0
2015-Feb-21 13:33N 59°55' E 030°14'0 0.0
2015-Feb-21 12:33N 59°55' E 030°14'0 0.3
2015-Feb-21 11:33N 59°55' E 030°13'0 0.0
2015-Feb-21 04:19N 59°55' E 030°13'1 1.8
2015-Feb-21 03:31N 59°53' E 030°12'  

Dump ship's entire track history